AirNav   Duncan Aviation - Near you to keep you flying
 
 803 users online  

2II6 Baird-Wolford Airport
Tipton, Indiana, USA

GOING TO TIPTON?


FAA INFORMATION EFFECTIVE 09 SEPTEMBER 2021

Location

FAA Identifier: 2II6
Lat/Long: 40-15-53.1330N 086-06-09.9610W
40-15.885550N 086-06.166017W
40.2647592,-86.1027669
(estimated)
Elevation: 880 ft. / 268 m (estimated)
Variation: 02W (1985)
From city: 3 miles SW of TIPTON, IN
Time zone: UTC -4 (UTC -5 during Standard Time)
Zip code: 46072

Airport Operations

Airport use: Private use. Permission required prior to landing
Activation date: 08/1982
Control tower: no
ARTCC: CHICAGO CENTER
FSS: TERRE HAUTE FLIGHT SERVICE STATION
Attendance: 0800-DUSK
Wind indicator: yes
Segmented circle: no

Airport Communications

WX AWOS-3PT at TYQ (16 nm SW): 120.725 (317-769-3154)
WX AWOS-3PT at OKK (16 nm N): 113.5 (765-452-3014)
WX AWOS-3 at UMP (20 nm S): 119.375 (317-842-3911)

Nearby radio navigation aids

VOR radial/distance  VOR name  Freq  Var
OKKr192/15.9KOKOMO VORTAC113.5005W
GUSr176/22.9GRISSOM VORTAC108.4502W
MZZr238/23.7MARION VOR/DME108.6003W
VHPr023/29.6BRICKYARD VORTAC116.3001E
MIEr276/32.5MUNCIE VOR/DME114.4003W

 
NDB name  Hdg/Dist  Freq  Var  ID
METROPOLITAN356/19.833803WUMP ..- -- .--.

Airport Services

Runway Information

Runway E/W

Dimensions: 2085 x 75 ft. / 636 x 23 m
HAS A 170' STWY ON E END.
Surface: turf
RUNWAY E  RUNWAY W
Traffic pattern: leftleft
Obstructions: 25 ft. pline, 200 ft. from runway85 ft. pline, 2000 ft. from runway

Airport Ownership and Management from official FAA records

Ownership: Privately-owned
Owner: ANNA WOLFORD/ALLEN BAIRD
2761S-500W
TIPTON, IN 46072
Phone 765-675-7382
Manager: MIKE WOLFORD
2761S-500W
TIPTON, IN 46072-8996
Phone 765-675-8618

Airport Operational Statistics

Aircraft based on the field: 2
Single engine airplanes: 2
    

Additional Remarks

LIGHT BALLOON AND ULTRALIGHT ACTIVITY DURING MILD WX MONTHS.
FOR CD CTC CHICAGO ARTCC AT 630-906-8921.

Instrument Procedures

There are no published instrument procedures at 2II6.

Some nearby airports with instrument procedures:

5I4 - Sheridan Airport (7 nm SW)
KTYQ - Indianapolis Executive Airport (16 nm SW)
KOKK - Kokomo Municipal Airport (16 nm N)
KUMP - Indianapolis Metro Airport (20 nm S)
KFKR - Frankfort Municipal Airport (21 nm W)
 
Loc | Ops | Rwys | IFR | FBO | Links
Com | Nav | Svcs | Stats | Notes
Area around 2II6 (Baird-Wolford Airport)
 
Road maps at: MapQuest Bing Google
 
Aerial photo
No photo
 
Sectional chart

 
Airport distance calculator
Flying to Baird-Wolford Airport? Find the distance to fly.

From to 2II6

Sunrise and sunset
Times for 25-Sep-2021
 Local
(UTC-4)
 Zulu
(UTC)
Morning civil twilight07:0911:09
Sunrise07:3611:36
Sunset19:3623:36
Evening civil twilight20:0300:03

Current date and time
Zulu (UTC)  25-Sep-2021 12:32:55
Local (UTC-4)  25-Sep-2021 08:32:55
 
METAR
KTYQ 
16nm SW 
251215Z AUTO 29004KT 10SM SCT024 BKN035 11/10 A3005 RMK AO2 T01100097
KOKK 
16nm N 
251156Z AUTO 30010KT 10SM SCT008 12/ A3002 RMK AO2 RAE03 SLP165 P0004 6//// 7//// T0117 10183 20117 51024
KFKR 
21nm W 
251215Z AUTO 27005KT 10SM FEW009 10/09 A3004 RMK AO2
KGUS 
22nm N 
251156Z AUTO 30009KT 10SM FEW100 12/11 A3000 RMK AO2 DZB15E25RAB25E26 SLP161 P0000 60032 70032 T01200106 10182 20120 52025 $
KMZZ 
24nm NE 
251215Z AUTO 31008KT 10SM A3002 RMK AO2
KAID 
24nm E 
251215Z AUTO 30009G15KT 7SM RA SCT007 BKN012 OVC049 14/12 A3002 RMK AO2 P0005 T01360116
KMQJ 
27nm S 
251215Z AUTO 28011G16KT 7SM SCT007 BKN012 OVC022 13/13 A3004 RMK AO1
KEYE 
27nm S 
251218Z AUTO 30008KT 10SM SCT011 BKN046 14/12 A3004 RMK AO2 T01390122
KGGP 
29nm NW 
251213Z AUTO 31004KT 10SM CLR A3003 RMK AO2
TAF
KGUS 
22nm N 
250215Z 2502/2603 20012G18KT 9999 SCT020 SCT100 QNH2994INS TEMPO 2503/2505 19015G25KT 9000 -SHRA BKN015 OVC070 BECMG 2506/2507 19010G15KT 9000 -SHRA BKN015 OVC050 QNH2992INS TEMPO 2507/2512 VRB15G25KT 4800 -TSRA BKN005CB BECMG 2513/2514 27010G15KT 9999 NSW SKC QNH3001INS TX18/2520Z TN12/2512Z LAST NO AMDS AFT 2503 NEXT 2513
NOTAMs
Click for the latest NOTAMs
NOTAMs are issued by the DoD/FAA and will open in a separate window not controlled by AirNav.

 

 
 

Would you like to see your business listed on this page?

 If your business provides an interesting product or service to pilots, flight crews, aircraft, or users of the Baird-Wolford Airport, you should consider listing it here.  To start the listing process, click on the button below
 
Add a business
 

Other Pages about Baird-Wolford Airport

Update a link
 
Copyright © AirNav, LLC. All rights reserved. Privacy Policy  Contact